Time;durP1;ratioP1;P1;durP2;ratioP2;P2;SDS_P1;SDS_P2;PMS_P1;PMS_P2;Temp;Humidity;BMP_temperature;BMP_pressure;BME280_temperature;BME280_humidity;BME280_pressure;Samples;Min_cycle;Max_cycle;Signal;HPM_P1;HPM_P2
2022/10/30 00:01:22;;;;;;;20.73;4.68;;;;;;;16.46;67.89;100645.78;4379288;32;32421;-83
2022/10/30 00:03:51;;;;;;;6.35;5.25;;;;;;;16.49;67.92;100646.50;4368353;32;34107;-84
2022/10/30 00:06:19;;;;;;;6.82;3.17;;;;;;;16.46;68.05;100646.66;4365536;32;32738;-84
2022/10/30 00:08:47;;;;;;;8.02;6.87;;;;;;;16.44;67.97;100643.22;4378347;32;34601;-84
2022/10/30 00:11:15;;;;;;;7.68;5.78;;;;;;;16.43;68.19;100641.50;4365670;32;35107;-84
2022/10/30 00:13:43;;;;;;;6.20;5.65;;;;;;;16.52;67.89;100641.00;4365740;32;33956;-84
2022/10/30 00:16:13;;;;;;;4.65;4.35;;;;;;;16.50;67.96;100648.22;4391348;32;32249;-84
2022/10/30 00:18:42;;;;;;;12.60;5.20;;;;;;;16.47;68.00;100643.03;4391441;32;33911;-85
2022/10/30 00:21:14;;;;;;;13.23;4.72;;;;;;;16.47;68.12;100631.50;4390459;32;32385;-84
2022/10/30 00:23:50;;;;;;;12.07;5.57;;;;;;;16.46;68.30;100629.81;4391118;32;33855;-85
2022/10/30 00:26:19;;;;;;;7.25;5.20;;;;;;;16.70;67.16;100638.25;4391497;32;34051;-85
2022/10/30 00:28:51;;;;;;;5.35;4.85;;;;;;;16.61;67.29;100632.47;4378826;32;32609;-85
2022/10/30 00:31:20;;;;;;;4.43;4.05;;;;;;;16.58;67.52;100624.66;4391125;32;33788;-85
2022/10/30 00:33:50;;;;;;;5.03;4.22;;;;;;;16.40;68.21;100636.34;4379092;32;35464;-85
2022/10/30 00:36:18;;;;;;;9.10;6.25;;;;;;;16.46;68.17;100629.81;4403839;32;33270;-85
2022/10/30 00:38:46;;;;;;;8.88;4.62;;;;;;;16.55;67.93;100624.81;4378958;32;34665;-85
2022/10/30 00:41:16;;;;;;;9.05;5.70;;;;;;;16.46;68.25;100624.47;4391076;32;34852;-85
2022/10/30 00:43:46;;;;;;;6.30;4.32;;;;;;;16.46;68.24;100617.31;4390595;32;32951;-85
2022/10/30 00:46:25;;;;;;;4.55;4.20;;;;;;;16.71;67.13;100618.62;4403458;32;33335;-85
2022/10/30 00:49:13;;;;;;;4.80;4.35;;;;;;;16.41;68.16;100616.72;4391186;32;33590;-85
2022/10/30 00:51:49;;;;;;;4.95;4.45;;;;;;;16.44;68.19;100613.03;4378817;32;32439;-85
2022/10/30 00:54:17;;;;;;;7.25;3.67;;;;;;;16.64;67.42;100613.66;4379020;32;32802;-85
2022/10/30 00:56:49;;;;;;;3.35;3.08;;;;;;;16.46;67.61;100616.47;4391228;32;32876;-85
2022/10/30 00:59:22;;;;;;;5.28;4.35;;;;;;;16.55;67.42;100619.50;4379384;32;32665;-85
2022/10/30 01:04:35;;;;;;;6.53;5.43;;;;;;;16.21;68.62;100609.81;4380684;32;33889;-83
2022/10/30 01:07:11;;;;;;;3.25;3.05;;;;;;;16.38;67.85;100616.91;4387437;32;34781;-83
2022/10/30 01:09:39;;;;;;;4.20;3.90;;;;;;;16.46;67.65;100620.00;4390835;32;32842;-82
2022/10/30 01:12:07;;;;;;;7.75;4.72;;;;;;;16.15;68.41;100611.97;4391680;32;33860;-82
2022/10/30 01:14:37;;;;;;;16.27;4.03;;;;;;;16.12;68.66;100611.16;4379237;32;32514;-82
2022/10/30 01:17:15;;;;;;;6.35;5.75;;;;;;;16.32;67.88;100609.22;4379241;32;32720;-82
2022/10/30 01:20:10;;;;;;;3.15;2.97;;;;;;;16.28;68.25;100605.00;4391709;32;34192;-82
2022/10/30 01:23:05;;;;;;;10.80;5.22;;;;;;;16.18;68.59;100596.66;4378102;32;32547;-82
2022/10/30 01:26:01;;;;;;;6.10;5.05;;;;;;;16.53;67.29;100594.75;4403811;32;32503;-82
2022/10/30 01:29:00;;;;;;;8.63;4.65;;;;;;;16.28;67.93;100594.34;4391816;32;32293;-84
2022/10/30 01:35:01;;;;;;;7.85;6.72;;;;;;;16.16;68.55;100582.56;4404496;32;33574;-84
2022/10/30 01:37:44;;;;;;;7.70;4.03;;;;;;;16.00;68.93;100571.91;4379304;32;34666;-84
2022/10/30 01:40:14;;;;;;;6.10;4.87;;;;;;;16.15;68.88;100567.53;4392295;32;33575;-84
2022/10/30 01:42:53;;;;;;;3.35;2.90;;;;;;;16.13;68.78;100564.06;4391730;32;34573;-84
2022/10/30 01:45:55;;;;;;;4.25;2.85;;;;;;;16.33;68.07;100566.53;4366497;32;34105;-84
2022/10/30 01:48:39;;;;;;;6.00;4.78;;;;;;;16.48;67.31;100564.81;4378897;32;33527;-84
2022/10/30 01:51:34;;;;;;;7.93;3.33;;;;;;;16.37;67.63;100564.53;4391582;32;32754;-86
2022/10/30 01:54:05;;;;;;;10.50;2.72;;;;;;;16.43;67.47;100576.69;4389440;32;33934;-85
2022/10/30 01:56:54;;;;;;;4.90;3.60;;;;;;;16.39;67.68;100583.97;4390933;32;32883;-85
2022/10/30 01:59:30;;;;;;;3.85;3.50;;;;;;;16.23;68.35;100583.09;4377793;32;34412;-85
2022/10/30 02:01:59;;;;;;;2.85;2.42;;;;;;;16.17;68.42;100589.63;4379410;32;34597;-85
2022/10/30 02:04:28;;;;;;;6.57;4.80;;;;;;;16.17;68.34;100580.75;4390906;32;33902;-85
2022/10/30 02:06:57;;;;;;;4.15;3.55;;;;;;;16.23;68.24;100589.28;4391256;32;34298;-85
2022/10/30 02:09:25;;;;;;;2.28;2.17;;;;;;;16.53;67.15;100580.56;4378680;32;33583;-85
2022/10/30 02:11:54;;;;;;;2.70;2.50;;;;;;;16.18;68.14;100588.66;4377175;32;32406;-85
2022/10/30 02:14:43;;;;;;;1.90;1.80;;;;;;;16.31;67.73;100579.06;4391138;32;34381;-85
2022/10/30 02:17:12;;;;;;;2.50;2.30;;;;;;;16.21;68.37;100584.97;4383966;32;34166;-85
2022/10/30 02:19:41;;;;;;;4.12;2.70;;;;;;;16.38;67.36;100583.13;4391204;32;33780;-85
2022/10/30 02:22:09;;;;;;;6.25;2.75;;;;;;;16.03;68.67;100585.03;4377956;32;33075;-85
2022/10/30 02:24:37;;;;;;;2.35;1.70;;;;;;;16.12;68.49;100589.00;4393046;32;32813;-85
2022/10/30 02:27:12;;;;;;;4.82;3.85;;;;;;;16.09;68.65;100576.72;4404871;32;34799;-85
2022/10/30 02:29:40;;;;;;;6.78;3.47;;;;;;;16.28;68.09;100578.34;4392921;32;33171;-85
2022/10/30 02:32:09;;;;;;;8.48;4.25;;;;;;;16.06;68.58;100586.69;4393486;32;33644;-85
2022/10/30 02:34:37;;;;;;;3.35;2.78;;;;;;;16.15;68.44;100585.31;4380705;32;32985;-84
2022/10/30 02:37:04;;;;;;;2.10;2.00;;;;;;;16.22;68.02;100589.37;4380439;32;33161;-84
2022/10/30 02:39:33;;;;;;;2.55;2.37;;;;;;;16.08;68.49;100588.31;4405818;32;34446;-85
2022/10/30 02:42:02;;;;;;;4.60;3.65;;;;;;;16.06;68.51;100584.88;4405603;32;33758;-85
2022/10/30 02:44:29;;;;;;;11.85;4.93;;;;;;;16.16;68.12;100571.06;4393241;32;34621;-84
2022/10/30 02:46:57;;;;;;;4.22;3.33;;;;;;;16.13;67.95;100578.25;4405353;32;33659;-84
2022/10/30 02:49:24;;;;;;;5.75;4.75;;;;;;;16.07;68.29;100570.59;4405742;32;34137;-84
2022/10/30 02:51:52;;;;;;;3.53;2.92;;;;;;;16.11;68.28;100571.31;4380576;32;33418;-84
2022/10/30 02:54:20;;;;;;;5.05;3.40;;;;;;;16.29;67.55;100580.09;4393193;32;33805;-84
2022/10/30 02:56:49;;;;;;;6.82;3.80;;;;;;;16.16;67.74;100563.06;4380733;32;33118;-84
2022/10/30 02:59:17;;;;;;;2.80;2.30;;;;;;;16.15;67.91;100567.53;4392941;32;34834;-84
2022/10/30 03:01:45;;;;;;;5.68;3.67;;;;;;;16.18;67.77;100571.81;4393064;32;33334;-84
2022/10/30 03:04:13;;;;;;;4.05;3.45;;;;;;;16.01;68.40;100578.94;4393066;32;34583;-84
2022/10/30 03:06:42;;;;;;;3.12;2.87;;;;;;;16.40;66.66;100577.69;4380911;32;32990;-84
2022/10/30 03:09:11;;;;;;;4.03;2.50;;;;;;;16.39;66.19;100575.97;4380406;32;33423;-84
2022/10/30 03:11:39;;;;;;;1.15;1.12;;;;;;;16.34;66.53;100580.72;4390499;32;34107;-84
2022/10/30 03:14:07;;;;;;;3.85;1.58;;;;;;;16.24;66.77;100582.16;4392863;32;33833;-84
2022/10/30 03:16:38;;;;;;;4.10;2.78;;;;;;;16.02;67.51;100577.13;4380456;32;33719;-84
2022/10/30 03:19:07;;;;;;;3.20;2.47;;;;;;;15.92;68.28;100576.75;4379350;32;33290;-84
2022/10/30 03:21:36;;;;;;;3.65;3.08;;;;;;;16.09;67.70;100576.72;4379050;32;33154;-84
2022/10/30 03:24:04;;;;;;;3.22;3.03;;;;;;;16.03;67.84;100579.69;4372864;32;32977;-84
2022/10/30 03:26:34;;;;;;;6.82;4.20;;;;;;;16.18;67.15;100583.34;4379697;32;34355;-84
2022/10/30 03:29:03;;;;;;;3.10;2.37;;;;;;;16.09;67.30;100574.06;4378539;32;33944;-84
2022/10/30 03:31:31;;;;;;;3.40;3.10;;;;;;;15.94;67.96;100577.53;4391795;32;32289;-85
2022/10/30 03:34:01;;;;;;;4.22;2.58;;;;;;;15.91;68.27;100572.37;4379201;32;33494;-85
2022/10/30 03:36:29;;;;;;;7.95;3.50;;;;;;;15.94;68.12;100568.69;4379777;32;32872;-84
2022/10/30 03:38:56;;;;;;;2.75;2.53;;;;;;;15.94;68.16;100574.88;4378901;32;33892;-85
2022/10/30 03:41:25;;;;;;;7.78;4.07;;;;;;;16.02;67.69;100567.34;4392485;32;33588;-84
2022/10/30 03:43:53;;;;;;;2.78;2.58;;;;;;;16.02;67.70;100572.66;4391664;32;33673;-85
2022/10/30 03:46:20;;;;;;;6.70;4.75;;;;;;;15.93;68.16;100575.81;4391445;32;33987;-85
2022/10/30 03:48:49;;;;;;;5.12;2.80;;;;;;;16.12;67.27;100573.88;4366579;32;32669;-84
2022/10/30 03:51:17;;;;;;;1.35;1.33;;;;;;;16.11;67.29;100574.81;4379223;32;33369;-85
2022/10/30 03:53:45;;;;;;;2.65;2.22;;;;;;;15.92;67.77;100574.09;4367826;32;33252;-84
2022/10/30 03:56:12;;;;;;;2.03;1.92;;;;;;;15.80;68.07;100582.72;4366625;32;34882;-84
2022/10/30 03:58:41;;;;;;;2.08;1.95;;;;;;;15.55;69.06;100573.34;4388332;32;33795;-84
2022/10/30 04:01:10;;;;;;;2.15;2.05;;;;;;;15.74;68.44;100577.72;4369861;32;32913;-84
2022/10/30 04:03:40;;;;;;;3.22;2.92;;;;;;;15.69;68.63;100577.97;4367266;32;32722;-84
2022/10/30 04:06:08;;;;;;;2.40;2.25;;;;;;;15.58;69.00;100575.00;4392015;32;33922;-84
2022/10/30 04:08:35;;;;;;;4.03;3.05;;;;;;;15.61;69.37;100567.69;4392332;32;33728;-84
2022/10/30 04:11:04;;;;;;;1.35;1.25;;;;;;;15.80;68.51;100566.75;4379889;32;31854;-84
2022/10/30 04:13:32;;;;;;;3.67;3.00;;;;;;;15.66;68.74;100558.63;4379553;32;31684;-85
2022/10/30 04:16:00;;;;;;;1.90;1.80;;;;;;;15.69;68.75;100566.47;4392213;32;34747;-86
2022/10/30 04:18:29;;;;;;;2.53;2.35;;;;;;;15.65;68.58;100567.56;4391946;32;34078;-85
2022/10/30 04:20:58;;;;;;;2.10;1.83;;;;;;;15.66;68.78;100567.47;4379416;32;34025;-85
2022/10/30 04:23:27;;;;;;;2.65;2.08;;;;;;;15.71;68.49;100562.75;4379545;32;33298;-85
2022/10/30 04:26:01;;;;;;;2.17;1.98;;;;;;;15.68;68.73;100567.41;4391741;32;34257;-85
2022/10/30 04:28:29;;;;;;;1.62;1.25;;;;;;;15.81;67.88;100564.03;4391622;32;34072;-85
2022/10/30 04:30:58;;;;;;;1.75;1.55;;;;;;;15.71;68.11;100567.22;4391782;32;33759;-85
2022/10/30 04:33:26;;;;;;;2.15;1.95;;;;;;;15.52;68.71;100562.84;4391538;32;32558;-85
2022/10/30 04:35:53;;;;;;;2.40;2.15;;;;;;;15.60;68.68;100571.28;4378495;32;33971;-85
2022/10/30 04:38:21;;;;;;;1.65;1.55;;;;;;;15.32;69.58;100571.00;4379434;32;33013;-86
2022/10/30 04:40:49;;;;;;;2.22;2.03;;;;;;;15.36;69.73;100565.44;4391612;32;33934;-85
2022/10/30 04:43:17;;;;;;;1.70;1.60;;;;;;;15.70;68.15;100566.37;4378988;32;34012;-85
2022/10/30 04:45:45;;;;;;;4.57;2.22;;;;;;;15.79;67.79;100570.38;4378001;32;32743;-85
2022/10/30 04:48:18;;;;;;;2.42;2.05;;;;;;;15.74;67.73;100561.75;4391680;32;34453;-85
2022/10/30 04:50:46;;;;;;;1.55;1.45;;;;;;;15.61;68.49;100567.69;4391710;32;33326;-85
2022/10/30 04:53:17;;;;;;;1.92;1.77;;;;;;;15.63;68.55;100559.63;4379505;32;32412;-85
2022/10/30 04:55:45;;;;;;;2.53;2.33;;;;;;;15.62;68.50;100565.91;4378740;32;32944;-85
2022/10/30 04:58:20;;;;;;;3.15;2.30;;;;;;;15.66;68.28;100563.97;4379279;32;33310;-85
2022/10/30 05:00:49;;;;;;;0.90;0.90;;;;;;;15.69;68.48;100569.13;4391209;32;33092;-85
2022/10/30 05:03:23;;;;;;;2.72;1.35;;;;;;;15.79;67.82;100567.69;4379577;32;32596;-85
2022/10/30 05:06:02;;;;;;;18.10;2.35;;;;;;;15.76;67.74;100565.19;4378819;32;33695;-85
2022/10/30 05:08:30;;;;;;;2.97;2.78;;;;;;;15.86;67.21;100561.97;4378897;32;33324;-85
2022/10/30 05:11:03;;;;;;;2.00;1.90;;;;;;;15.89;66.71;100566.25;4379177;32;32966;-84
2022/10/30 05:13:32;;;;;;;2.35;2.20;;;;;;;15.71;67.15;100568.09;4391206;32;33840;-85
2022/10/30 05:16:04;;;;;;;1.20;1.15;;;;;;;15.65;67.65;100562.25;4391502;32;34016;-86
2022/10/30 05:18:37;;;;;;;1.40;1.30;;;;;;;15.81;67.01;100574.69;4378062;32;35358;-85
2022/10/30 05:21:05;;;;;;;2.50;2.05;;;;;;;15.71;67.08;100572.56;4375780;32;32581;-85
2022/10/30 05:23:36;;;;;;;0.62;0.62;;;;;;;15.67;67.22;100573.69;4376799;32;34223;-85
2022/10/30 05:26:05;;;;;;;1.65;1.55;;;;;;;15.68;66.90;100583.38;4389092;32;33922;-86
2022/10/30 05:28:34;;;;;;;1.08;0.98;;;;;;;15.44;67.84;100591.66;4381351;32;35262;-85
2022/10/30 05:31:02;;;;;;;1.83;1.73;;;;;;;15.50;67.92;100580.69;4389096;32;33642;-85
2022/10/30 05:33:32;;;;;;;3.75;1.52;;;;;;;15.51;67.83;100585.06;4378099;32;32641;-85
2022/10/30 05:36:04;;;;;;;1.20;1.08;;;;;;;15.50;67.63;100593.16;4389252;32;36535;-85
2022/10/30 05:38:35;;;;;;;2.08;1.98;;;;;;;15.56;67.81;100595.50;4377090;32;33666;-86
2022/10/30 05:41:17;;;;;;;1.60;1.50;;;;;;;15.59;67.71;100596.19;4388712;32;33268;-86
2022/10/30 05:43:48;;;;;;;1.80;1.65;;;;;;;15.47;68.07;100601.28;4389773;32;33726;-85
2022/10/30 05:46:17;;;;;;;2.55;1.62;;;;;;;15.21;69.07;100603.47;4388942;32;33008;-85
2022/10/30 05:48:54;;;;;;;1.02;0.98;;;;;;;15.56;68.27;100611.47;4376265;32;33059;-85
2022/10/30 05:54:09;;;;;;;1.95;1.30;;;;;;;15.42;68.54;100603.31;4402822;32;33937;-84
2022/10/30 05:56:56;;;;;;;1.27;1.27;;;;;;;15.39;68.85;100598.16;4379278;32;34059;-84
2022/10/30 05:59:24;;;;;;;2.22;1.95;;;;;;;15.48;68.37;100595.91;4391724;32;33080;-84
2022/10/30 06:01:52;;;;;;;2.55;2.35;;;;;;;15.49;68.41;100594.09;4391586;32;33258;-84
2022/10/30 06:04:22;;;;;;;1.70;1.55;;;;;;;15.56;68.16;100595.50;4391737;32;34346;-84
2022/10/30 06:06:54;;;;;;;1.83;1.55;;;;;;;15.47;68.51;100594.16;4391665;32;33917;-84
2022/10/30 06:09:25;;;;;;;1.40;1.30;;;;;;;15.72;67.83;100604.44;4379285;32;32584;-84
2022/10/30 06:11:57;;;;;;;1.50;1.48;;;;;;;15.84;67.39;100601.12;4386043;32;33410;-84
2022/10/30 06:14:35;;;;;;;;;;;;;;;15.90;66.85;100596.41;4368001;32;791238;-84
2022/10/30 06:20:59;;;;;;;3.53;1.12;;;;;;;15.87;67.20;100592.13;4401511;32;34042;-84
2022/10/30 06:23:39;;;;;;;1.45;1.35;;;;;;;15.92;67.01;100594.53;4391558;32;34085;-83
2022/10/30 06:26:11;;;;;;;3.67;2.78;;;;;;;15.91;67.26;100607.00;4377798;32;34152;-85
2022/10/30 06:28:47;;;;;;;2.60;2.40;;;;;;;16.18;65.87;100601.97;4378391;32;33744;-85
2022/10/30 06:31:19;;;;;;;2.05;1.92;;;;;;;16.07;66.19;100601.72;4390606;32;33580;-85
2022/10/30 06:33:49;;;;;;;2.03;1.62;;;;;;;16.08;66.44;100598.97;4375084;32;32659;-85
2022/10/30 06:36:19;;;;;;;1.75;1.65;;;;;;;15.90;67.07;100604.41;4403216;32;33683;-84
2022/10/30 06:39:00;;;;;;;1.90;1.45;;;;;;;15.72;67.72;100604.44;4390618;32;35758;-87
2022/10/30 06:46:54;;;;;;;2.70;1.23;;;;;;;15.79;67.93;100605.84;4401533;32;33919;-83
2022/10/30 06:49:25;;;;;;;2.55;2.25;;;;;;;16.24;66.21;100608.81;4390480;32;33275;-84
2022/10/30 06:52:06;;;;;;;;;;;;;;;16.12;66.52;100615.66;4380405;32;35478;-83
2022/10/30 06:54:36;;;;;;;2.75;2.55;;;;;;;16.31;65.56;100620.84;4392255;32;32409;-83
2022/10/30 06:57:10;;;;;;;3.15;1.70;;;;;;;16.25;65.52;100610.53;4403214;32;34001;-83
2022/10/30 06:59:49;;;;;;;3.25;2.70;;;;;;;15.94;66.52;100620.16;4378708;32;32747;-83
2022/10/30 07:02:20;;;;;;;3.08;2.85;;;;;;;16.09;66.49;100627.34;4390162;32;33989;-83
2022/10/30 07:04:50;;;;;;;1.37;1.27;;;;;;;15.91;66.97;100627.47;4390151;32;33564;-83
2022/10/30 07:07:21;;;;;;;3.40;2.08;;;;;;;15.98;67.00;100623.50;4388442;32;32899;-83
2022/10/30 07:09:54;;;;;;;3.58;2.53;;;;;;;15.88;67.64;100626.66;4392824;32;34360;-83
2022/10/30 07:12:35;;;;;;;4.55;1.55;;;;;;;16.12;67.01;100627.16;4381181;32;35326;-83
2022/10/30 07:15:06;;;;;;;5.28;2.37;;;;;;;15.86;67.53;100625.03;4392632;32;31915;-84
2022/10/30 07:17:34;;;;;;;3.00;2.42;;;;;;;15.99;67.49;100614.56;4393149;32;33781;-83
2022/10/30 07:20:05;;;;;;;5.10;2.45;;;;;;;16.06;67.11;100608.84;4380479;32;33347;-83
2022/10/30 07:22:37;;;;;;;1.42;1.33;;;;;;;16.29;66.21;100612.09;4393145;32;32251;-83
2022/10/30 07:25:17;;;;;;;3.33;2.40;;;;;;;16.13;66.72;100617.34;4392989;32;33830;-83
2022/10/30 07:27:50;;;;;;;3.60;3.25;;;;;;;16.05;67.06;100623.13;4393023;32;34575;-84
2022/10/30 07:30:23;;;;;;;1.15;1.02;;;;;;;16.35;65.72;100611.75;4395941;32;34600;-84
2022/10/30 07:35:42;;;;;;;4.40;3.97;;;;;;;16.40;65.30;100620.34;4382047;32;32374;-83
2022/10/30 07:38:28;;;;;;;3.33;3.03;;;;;;;16.32;65.51;100619.87;4380282;32;32858;-84
2022/10/30 07:43:43;;;;;;;2.05;1.90;;;;;;;16.07;65.68;100634.53;4393113;32;33527;-83
2022/10/30 07:46:11;;;;;;;3.40;2.80;;;;;;;15.91;66.52;100633.63;4393631;32;32877;-83
2022/10/30 07:48:40;;;;;;;1.75;1.60;;;;;;;15.98;66.61;100639.50;4380174;32;33654;-83
2022/10/30 07:51:10;;;;;;;3.42;2.58;;;;;;;16.31;65.58;100626.16;4392690;32;33647;-83
2022/10/30 07:53:42;;;;;;;3.67;3.28;;;;;;;16.30;65.14;100629.78;4396010;32;32988;-83
2022/10/30 07:58:59;;;;;;;;;;;;;;;16.05;66.56;100632.91;4391717;32;33472;-84
2022/10/30 08:01:32;;;;;;;2.62;1.67;;;;;;;16.05;66.56;100633.78;4392247;32;34342;-84
2022/10/30 08:06:39;;;;;;;2.45;2.08;;;;;;;15.96;66.85;100636.91;4391516;32;34095;-87
2022/10/30 08:09:19;;;;;;;2.15;1.95;;;;;;;15.91;66.51;100638.13;4392518;32;33747;-90
2022/10/30 08:11:53;;;;;;;1.60;1.50;;;;;;;15.95;66.81;100634.31;4387675;32;32673;-88
2022/10/30 08:14:24;;;;;;;;;;;;;;;15.91;67.17;100635.44;4379811;32;32835;-89
2022/10/30 08:16:53;;;;;;;2.22;2.03;;;;;;;15.97;66.86;100638.62;4379127;32;32321;-88
2022/10/30 08:19:22;;;;;;;2.70;1.83;;;;;;;16.06;66.57;100638.16;4378686;32;33013;-88
2022/10/30 08:24:28;;;;;;;4.80;3.53;;;;;;;15.97;66.93;100643.97;4391790;32;32923;-88
2022/10/30 08:27:06;;;;;;;1.12;1.12;;;;;;;16.16;66.47;100645.66;4391692;32;33356;-88
2022/10/30 08:29:46;;;;;;;2.53;2.12;;;;;;;16.05;66.88;100640.91;4391379;32;34724;-88
2022/10/30 08:32:19;;;;;;;1.95;1.85;;;;;;;16.18;66.74;100641.09;4379017;32;32748;-87
2022/10/30 08:34:58;;;;;;;1.73;1.58;;;;;;;16.28;66.22;100644.97;4378886;32;35376;-88
2022/10/30 08:37:30;;;;;;;4.45;3.58;;;;;;;16.29;66.10;100644.06;4378383;32;31940;-87
2022/10/30 08:40:07;;;;;;;2.80;2.55;;;;;;;16.14;66.92;100643.06;4379374;32;33202;-88
2022/10/30 08:42:42;;;;;;;2.00;1.90;;;;;;;16.35;66.31;100633.06;4378937;32;34331;-87
2022/10/30 08:45:12;;;;;;;2.00;1.90;;;;;;;16.30;65.99;100641.31;4379956;32;32626;-88
2022/10/30 08:50:19;;;;;;;2.47;1.58;;;;;;;16.34;65.61;100639.34;4378795;32;33795;-87
2022/10/30 08:55:32;;;;;;;1.98;0.88;;;;;;;16.31;65.92;100642.16;4389183;32;33981;-89
2022/10/30 08:58:01;;;;;;;2.45;2.25;;;;;;;16.29;65.91;100636.06;4364567;32;32780;-88
2022/10/30 09:00:38;;;;;;;6.90;4.00;;;;;;;16.41;65.23;100632.72;4376833;32;34409;-88
2022/10/30 09:03:11;;;;;;;2.95;2.25;;;;;;;16.53;64.81;100632.06;4376417;32;33194;-88
2022/10/30 09:05:54;;;;;;;3.10;2.63;;;;;;;16.60;64.37;100633.41;4387776;32;34062;-88
2022/10/30 09:08:33;;;;;;;2.67;2.45;;;;;;;16.76;64.48;100628.16;4374528;32;33369;-88
2022/10/30 09:11:05;;;;;;;2.28;2.12;;;;;;;16.86;63.90;100621.34;4386938;32;33934;-90
2022/10/30 09:13:38;;;;;;;2.67;2.47;;;;;;;17.09;62.86;100630.72;4392112;32;32453;-94
2022/10/30 09:16:15;;;;;;;3.80;2.97;;;;;;;17.10;63.26;100643.09;4393028;32;34337;-90
2022/10/30 09:18:44;;;;;;;3.03;2.45;;;;;;;17.15;62.96;100634.81;4383029;32;32197;-89
2022/10/30 09:21:26;;;;;;;3.10;2.87;;;;;;;17.20;62.40;100637.22;4370300;32;32990;-92
2022/10/30 09:24:11;;;;;;;4.18;3.70;;;;;;;17.20;62.54;100637.22;4383925;32;32787;-92
2022/10/30 09:27:00;;;;;;;7.40;3.20;;;;;;;17.14;63.15;100639.31;4386852;32;33836;-91
2022/10/30 09:29:44;;;;;;;2.20;1.87;;;;;;;17.12;63.03;100629.66;4393222;32;31999;-91
2022/10/30 09:32:30;;;;;;;4.03;1.95;;;;;;;16.94;63.71;100634.22;4392932;32;33297;-93
2022/10/30 09:35:21;;;;;;;5.07;3.30;;;;;;;16.53;65.47;100624.06;4391846;32;34679;-92
2022/10/30 09:38:12;;;;;;;6.70;3.95;;;;;;;16.80;64.98;100626.16;4437745;32;32668;-92
2022/10/30 09:41:15;;;;;;;7.45;4.15;;;;;;;16.69;65.20;100628.53;4427731;32;33315;-91
2022/10/30 09:44:40;;;;;;;2.12;1.98;;;;;;;16.51;66.07;100633.94;4401608;32;32438;-92
2022/10/30 09:48:04;;;;;;;8.75;3.53;;;;;;;16.55;65.91;100632.81;4350099;32;34138;-92
2022/10/30 09:51:15;;;;;;;4.97;1.75;;;;;;;16.81;64.96;100623.41;4359259;32;34259;-86
2022/10/30 09:53:53;;;;;;;1.80;1.70;;;;;;;16.97;64.87;100620.72;4347478;32;31985;-88
2022/10/30 09:56:30;;;;;;;1.92;1.75;;;;;;;16.56;66.13;100610.53;4336163;32;32779;-89
2022/10/30 10:01:47;;;;;;;3.58;3.35;;;;;;;16.82;65.74;100608.28;4361996;32;33805;-88
2022/10/30 10:04:43;;;;;;;1.70;1.60;;;;;;;17.04;64.83;100608.78;4360866;32;33053;-88
2022/10/30 10:07:42;;;;;;;3.33;2.30;;;;;;;17.24;64.29;100612.94;4348957;32;33097;-89
2022/10/30 10:10:23;;;;;;;4.05;3.72;;;;;;;17.07;64.74;100610.37;4330105;32;33358;-89
2022/10/30 10:12:57;;;;;;;4.05;3.05;;;;;;;16.78;65.72;100601.38;4372352;32;32836;-88
2022/10/30 10:15:50;;;;;;;2.47;2.30;;;;;;;16.92;65.11;100601.47;4349274;32;33131;-88
2022/10/30 10:18:34;;;;;;;5.05;3.60;;;;;;;17.39;62.44;100606.69;4348259;32;33325;-88
2022/10/30 10:21:20;;;;;;;1.40;1.33;;;;;;;16.72;65.41;100593.75;4360376;32;33284;-88
2022/10/30 10:23:59;;;;;;;3.87;2.62;;;;;;;16.85;65.31;100600.06;4360532;32;33915;-88
2022/10/30 10:26:30;;;;;;;2.72;2.45;;;;;;;16.62;65.53;100599.56;4345816;32;32677;-88
2022/10/30 10:29:02;;;;;;;;;;;;;;;16.89;65.10;100597.16;4360994;32;34744;-88
2022/10/30 10:34:39;;;;;;;3.47;3.17;;;;;;;17.14;64.37;100601.09;4361395;32;34181;-88
2022/10/30 10:37:22;;;;;;;2.62;2.33;;;;;;;17.58;63.06;100600.28;4364900;32;34115;-88
2022/10/30 10:40:09;;;;;;;1.62;1.50;;;;;;;17.54;63.65;100585.38;4358533;32;33045;-88
2022/10/30 10:45:37;;;;;;;3.58;3.28;;;;;;;17.42;63.62;100578.94;4350808;32;32898;-88
2022/10/30 10:48:34;;;;;;;11.77;3.42;;;;;;;17.24;64.31;100585.41;4372923;32;34501;-88
2022/10/30 10:51:21;;;;;;;4.95;2.95;;;;;;;17.45;63.75;100577.91;4351169;32;34621;-88
2022/10/30 10:53:55;;;;;;;2.97;2.17;;;;;;;17.32;64.14;100591.12;4374263;32;33601;-88
2022/10/30 10:56:42;;;;;;;3.25;2.95;;;;;;;16.99;65.04;100584.12;4363316;32;33150;-89
2022/10/30 10:59:21;;;;;;;8.68;3.25;;;;;;;17.17;64.64;100584.88;4361668;32;33436;-88
2022/10/30 11:02:08;;;;;;;4.90;3.22;;;;;;;17.52;63.83;100579.25;4361927;32;33810;-89
2022/10/30 11:04:39;;;;;;;4.18;3.10;;;;;;;17.34;64.01;100576.75;4349964;32;34725;-88
2022/10/30 11:07:22;;;;;;;2.10;2.00;;;;;;;17.56;63.55;100575.44;4361728;32;33646;-88
2022/10/30 11:09:52;;;;;;;3.05;2.75;;;;;;;17.54;63.85;100572.87;4361860;32;34087;-88
2022/10/30 11:12:27;;;;;;;3.03;2.67;;;;;;;17.89;62.13;100565.41;4361603;32;33625;-88
2022/10/30 11:21:07;;;;;;;5.78;2.40;;;;;;;18.07;61.78;100558.06;4361371;32;33502;-88
2022/10/30 11:23:48;;;;;;;1.52;1.27;;;;;;;18.10;61.57;100557.88;4372855;32;34606;-88
2022/10/30 11:26:21;;;;;;;2.72;1.40;;;;;;;18.34;60.47;100558.13;4350039;32;33793;-87
2022/10/30 11:28:57;;;;;;;4.22;3.78;;;;;;;18.32;60.27;100562.72;4373916;32;33486;-88
2022/10/30 11:31:41;;;;;;;3.72;1.67;;;;;;;18.00;61.46;100553.22;4361805;32;33730;-88
2022/10/30 11:34:20;;;;;;;4.68;2.15;;;;;;;17.89;61.70;100561.88;4361565;32;33024;-88
2022/10/30 11:36:55;;;;;;;4.62;2.92;;;;;;;17.48;63.53;100551.91;4361427;32;33213;-88
2022/10/30 11:39:34;;;;;;;3.87;3.43;;;;;;;17.57;63.68;100554.00;4350590;32;33275;-88
2022/10/30 11:42:18;;;;;;;5.10;3.40;;;;;;;17.32;63.68;100556.41;4339372;32;34533;-88
2022/10/30 11:44:52;;;;;;;4.20;3.12;;;;;;;17.37;64.06;100565.00;4350089;32;33877;-88
2022/10/30 11:50:22;;;;;;;5.25;4.07;;;;;;;17.47;63.87;100558.19;4362027;32;34243;-88
2022/10/30 11:52:53;;;;;;;3.92;2.00;;;;;;;17.68;63.46;100548.00;4359427;32;32041;-88
2022/10/30 11:55:38;;;;;;;2.35;2.00;;;;;;;17.63;63.29;100545.63;4348615;32;32702;-88
2022/10/30 11:58:42;;;;;;;3.50;2.22;;;;;;;18.09;62.06;100540.12;4362103;32;33630;-88
2022/10/30 12:01:30;;;;;;;4.40;2.03;;;;;;;17.95;62.08;100545.50;4360864;32;33914;-88
2022/10/30 12:04:24;;;;;;;2.37;2.17;;;;;;;17.93;62.44;100542.03;4361725;32;33874;-88
2022/10/30 12:07:21;;;;;;;6.10;3.20;;;;;;;17.94;62.22;100548.22;4350155;32;34249;-88
2022/10/30 12:09:49;;;;;;;4.30;2.80;;;;;;;18.03;62.26;100534.31;4348764;32;33049;-88
2022/10/30 12:12:47;;;;;;;1.83;1.73;;;;;;;18.21;61.37;100540.31;4349342;32;33808;-88
2022/10/30 12:18:06;;;;;;;4.15;2.55;;;;;;;17.87;62.91;100524.56;4362394;32;33362;-88
2022/10/30 12:20:36;;;;;;;2.45;2.05;;;;;;;18.32;60.59;100522.59;4360687;32;33717;-88
2022/10/30 12:23:23;;;;;;;3.53;2.78;;;;;;;18.48;59.78;100522.50;4346849;32;33870;-88
2022/10/30 12:26:13;;;;;;;2.47;1.52;;;;;;;18.00;61.61;100519.34;4361756;32;32518;-88
2022/10/30 12:28:52;;;;;;;4.97;3.30;;;;;;;18.00;61.74;100522.00;4347118;32;34114;-88
2022/10/30 12:31:40;;;;;;;8.73;4.10;;;;;;;17.53;63.13;100523.09;4361210;32;33925;-88
2022/10/30 12:34:35;;;;;;;5.45;2.90;;;;;;;17.71;63.16;100529.13;4348949;32;33767;-88
2022/10/30 12:37:16;;;;;;;1.45;1.35;;;;;;;17.81;62.62;100526.78;4360773;32;33312;-88
2022/10/30 12:42:58;;;;;;;5.03;4.20;;;;;;;18.35;60.27;100521.56;4350008;32;32840;-88
2022/10/30 12:45:39;;;;;;;1.73;1.62;;;;;;;17.84;62.02;100522.09;4348847;32;33375;-88
2022/10/30 12:48:17;;;;;;;1.35;1.23;;;;;;;17.80;62.55;100525.94;4360645;32;33361;-88
2022/10/30 12:50:56;;;;;;;3.05;2.28;;;;;;;17.82;62.75;100525.81;4354093;32;33629;-88
2022/10/30 12:53:59;;;;;;;6.37;4.28;;;;;;;18.04;61.81;100523.53;4347992;32;33927;-88
2022/10/30 12:56:43;;;;;;;2.25;2.15;;;;;;;18.17;61.70;100535.13;4348411;32;34149;-88
2022/10/30 13:02:27;;;;;;;1.92;1.83;;;;;;;18.00;61.83;100527.34;4373647;32;32500;-88
2022/10/30 13:05:20;;;;;;;1.12;1.08;;;;;;;17.59;63.48;100527.22;4360471;32;35568;-88
2022/10/30 13:07:53;;;;;;;1.48;1.37;;;;;;;17.85;62.55;100528.28;4368047;32;32282;-88